Time,TemperatureF,DewpointF,PressureIn,WindDirection,WindDirectionDegrees,WindSpeedMPH,WindSpeedGustMPH,Humidity,HourlyPrecipIn,Conditions,Clouds,dailyrainin,SoftwareType,DateUTC
2013-06-19 00:00:00,51.6,36.9,29.40,North,357,0.0,3.1,57,0.00,,---,0.00,VWS V14.01,2013-06-19 07:00:00,
2013-06-19 00:20:00,51.4,35.4,29.40,NW,317,0.0,2.2,54,0.00,,---,0.00,VWS V14.01,2013-06-19 07:20:00,
2013-06-19 00:40:00,50.9,32.4,29.40,WNW,298,0.0,0.0,49,0.00,,---,0.00,VWS V14.01,2013-06-19 07:40:00,
2013-06-19 02:40:00,48.7,30.5,29.34,North,0,0.0,0.0,49,0.00,,---,0.00,VWS V14.01,2013-06-19 09:40:00,
2013-06-19 03:00:00,48.9,29.1,29.37,WSW,245,0.0,0.0,46,0.00,,---,0.00,VWS V14.01,2013-06-19 10:00:00,
2013-06-19 03:20:00,49.3,29.4,29.34,WSW,245,0.0,0.0,46,0.00,,---,0.00,VWS V14.01,2013-06-19 10:20:00,
2013-06-19 03:40:00,49.6,29.7,29.34,WSW,245,0.0,0.0,46,0.00,,---,0.00,VWS V14.01,2013-06-19 10:40:00,
2013-06-19 04:00:00,49.5,29.6,29.34,WSW,245,0.0,0.0,46,0.00,,---,0.00,VWS V14.01,2013-06-19 11:00:00,
2013-06-19 04:20:00,49.5,29.6,29.34,North,0,0.0,0.0,46,0.00,,---,0.00,VWS V14.01,2013-06-19 11:20:00,
2013-06-19 04:40:00,48.6,28.7,29.37,North,7,0.0,0.0,46,0.00,,---,0.00,VWS V14.01,2013-06-19 11:40:00,
2013-06-19 05:00:00,47.1,27.9,29.34,North,7,0.0,2.7,47,0.00,,---,0.00,VWS V14.01,2013-06-19 12:00:00,
2013-06-19 05:20:00,46.4,27.3,29.34,NNE,26,0.0,2.7,47,0.00,,---,0.00,VWS V14.01,2013-06-19 12:20:00,
2013-06-19 05:40:00,47.1,27.9,29.34,North,3,0.0,4.0,47,0.00,,---,0.00,VWS V14.01,2013-06-19 12:40:00,
2013-06-19 06:00:00,47.1,27.9,29.34,NNE,18,0.0,4.0,47,0.00,,---,0.00,VWS V14.01,2013-06-19 13:00:00,
2013-06-19 06:20:00,48.0,28.8,29.37,NNE,25,0.0,3.1,47,0.00,,---,0.00,VWS V14.01,2013-06-19 13:20:00,
2013-06-19 06:40:00,50.7,29.6,29.37,NNE,19,2.2,3.1,44,0.00,,---,0.00,VWS V14.01,2013-06-19 13:40:00,
2013-06-19 07:00:00,52.0,30.2,29.37,North,7,0.0,3.6,43,0.00,,---,0.00,VWS V14.01,2013-06-19 14:00:00,
2013-06-19 07:20:00,55.8,33.0,29.37,South,185,0.0,3.1,42,0.00,,---,0.00,VWS V14.01,2013-06-19 14:20:00,
2013-06-19 07:40:00,60.6,37.4,29.37,SW,222,3.6,4.0,42,0.00,,---,0.00,VWS V14.01,2013-06-19 14:40:00,
2013-06-19 08:00:00,62.6,38.6,29.37,West,273,3.6,6.3,41,0.00,,---,0.00,VWS V14.01,2013-06-19 15:00:00,
2013-06-19 08:20:00,64.0,39.9,29.37,SW,221,2.7,6.7,41,0.00,,---,0.00,VWS V14.01,2013-06-19 15:20:00,
2013-06-19 08:40:00,67.3,42.2,29.37,SSE,163,5.8,11.0,40,0.00,,---,0.00,VWS V14.01,2013-06-19 15:40:00,
2013-06-19 09:00:00,69.3,43.9,29.37,SSW,202,4.9,9.2,40,0.00,,---,0.00,VWS V14.01,2013-06-19 16:00:00,
2013-06-19 09:20:00,71.6,46.7,29.37,West,263,3.1,5.8,41,0.00,,---,0.00,VWS V14.01,2013-06-19 16:20:00,
2013-06-19 09:40:00,73.0,48.0,29.37,West,263,4.5,8.3,41,0.00,,---,0.00,VWS V14.01,2013-06-19 16:40:00,
2013-06-19 10:00:00,73.0,48.0,29.40,SSW,209,7.6,10.1,41,0.00,,---,0.00,VWS V14.01,2013-06-19 17:00:00,
2013-06-19 10:20:00,73.4,48.3,29.40,WSW,240,5.8,10.5,41,0.00,,---,0.00,VWS V14.01,2013-06-19 17:20:00,
2013-06-19 10:40:00,74.5,49.3,29.40,SW,219,7.6,10.5,41,0.00,,---,0.00,VWS V14.01,2013-06-19 17:40:00,
2013-06-19 11:00:00,74.7,49.4,29.40,SSW,208,3.1,11.0,41,0.00,,---,0.00,VWS V14.01,2013-06-19 18:00:00,
2013-06-19 11:20:00,76.6,50.5,29.40,WNW,289,5.8,10.5,40,0.00,,---,0.00,VWS V14.01,2013-06-19 18:20:00,
2013-06-19 11:40:00,77.5,51.3,29.40,SSW,198,12.8,12.8,40,0.00,,---,0.00,VWS V14.01,2013-06-19 18:40:00,
2013-06-19 12:00:00,77.2,51.0,29.40,SSW,210,6.3,15.4,40,0.00,,---,0.00,VWS V14.01,2013-06-19 19:00:00,
2013-06-19 12:20:00,78.1,51.8,29.40,SW,224,10.5,15.0,40,0.00,,---,0.00,VWS V14.01,2013-06-19 19:20:00,
2013-06-19 12:40:00,78.1,51.8,29.40,South,170,8.1,11.4,40,0.00,,---,0.00,VWS V14.01,2013-06-19 19:40:00,
2013-06-19 13:00:00,79.5,53.1,29.40,SW,216,8.1,15.9,40,0.00,,---,0.00,VWS V14.01,2013-06-19 20:00:00,
2013-06-19 13:20:00,83.7,56.1,29.40,South,179,5.4,17.0,39,0.00,,---,0.00,VWS V14.01,2013-06-19 20:20:00,
2013-06-19 13:40:00,85.1,55.2,29.40,SW,217,6.3,11.9,36,0.00,,---,0.00,VWS V14.01,2013-06-19 20:40:00,
2013-06-19 14:00:00,87.3,57.1,29.40,West,264,5.4,13.6,36,0.00,,---,0.00,VWS V14.01,2013-06-19 21:00:00,
2013-06-19 14:20:00,89.4,58.2,29.40,NNW,346,3.1,10.1,35,0.00,,---,0.00,VWS V14.01,2013-06-19 21:20:00,
2013-06-19 14:40:00,86.2,57.6,29.40,NE,51,7.2,14.5,38,0.00,,---,0.00,VWS V14.01,2013-06-19 21:40:00,
2013-06-19 15:00:00,87.8,56.8,29.40,NW,309,3.1,8.3,35,0.00,,---,0.00,VWS V14.01,2013-06-19 22:00:00,
2013-06-19 15:20:00,83.1,53.4,29.40,SSW,211,5.4,13.2,36,0.00,,---,0.00,VWS V14.01,2013-06-19 22:20:00,
2013-06-19 15:40:00,84.7,54.9,29.40,SSW,193,2.7,10.5,36,0.00,,---,0.00,VWS V14.01,2013-06-19 22:40:00,
2013-06-19 16:00:00,88.7,57.6,29.40,SE,137,5.4,9.2,35,0.00,,---,0.00,VWS V14.01,2013-06-19 23:00:00,
2013-06-19 16:20:00,84.6,54.7,29.40,West,277,4.0,10.1,36,0.00,,---,0.00,VWS V14.01,2013-06-19 23:20:00,
2013-06-19 16:40:00,82.8,53.1,29.40,South,189,3.6,8.7,36,0.00,,---,0.00,VWS V14.01,2013-06-19 23:40:00,
2013-06-19 17:00:00,84.4,54.5,29.40,SSW,207,3.6,8.1,36,0.00,,---,0.00,VWS V14.01,2013-06-20 00:00:00,
2013-06-19 17:20:00,83.1,53.4,29.40,WSW,238,4.9,8.7,36,0.00,,---,0.00,VWS V14.01,2013-06-20 00:20:00,
2013-06-19 18:40:00,70.2,44.1,29.40,WSW,241,3.6,8.7,39,0.00,,---,0.00,VWS V14.01,2013-06-20 01:40:00,
2013-06-19 19:20:00,67.1,43.3,29.40,NW,318,3.1,5.8,42,0.00,,---,0.00,VWS V14.01,2013-06-20 02:20:00,
2013-06-19 19:40:00,65.1,42.1,29.40,NNW,346,0.0,5.4,43,0.00,,---,0.00,VWS V14.01,2013-06-20 02:40:00,
2013-06-19 20:20:00,61.0,42.7,29.40,NNE,20,2.7,6.3,51,0.00,,---,0.00,VWS V14.01,2013-06-20 03:20:00,
2013-06-19 20:40:00,59.7,43.1,29.40,North,357,3.1,6.3,54,0.00,,---,0.00,VWS V14.01,2013-06-20 03:40:00,
2013-06-19 21:00:00,58.5,42.8,29.40,NNW,337,5.8,6.3,56,0.00,,---,0.00,VWS V14.01,2013-06-20 04:00:00,
2013-06-19 21:40:00,55.8,42.1,29.40,NW,326,0.0,4.9,60,0.00,,---,0.00,VWS V14.01,2013-06-20 04:40:00,
2013-06-19 22:00:00,54.5,42.6,29.40,SSE,163,0.0,5.4,64,0.00,,---,0.00,VWS V14.01,2013-06-20 05:00:00,
2013-06-19 22:20:00,54.0,42.5,29.40,North,7,0.0,4.0,65,0.00,,---,0.00,VWS V14.01,2013-06-20 05:20:00,
2013-06-19 22:40:00,50.9,40.3,29.40,NNW,338,2.2,2.2,67,0.00,,---,0.00,VWS V14.01,2013-06-20 05:40:00,
2013-06-19 23:00:00,51.1,41.3,29.40,North,353,0.0,4.0,69,0.00,,---,0.00,VWS V14.01,2013-06-20 06:00:00,
2013-06-19 23:20:00,50.4,39.8,29.40,NNE,13,2.7,3.6,67,0.00,,---,0.00,VWS V14.01,2013-06-20 06:20:00,
2013-06-19 23:40:00,48.6,38.9,29.40,NNW,344,0.0,4.0,69,0.00,,---,0.00,VWS V14.01,2013-06-20 06:40:00,